Time;durP1;ratioP1;P1;durP2;ratioP2;P2;SDS_P1;SDS_P2;PMS_P1;PMS_P2;Temp;Humidity;BMP_temperature;BMP_pressure;BME280_temperature;BME280_humidity;BME280_pressure;Samples;Min_cycle;Max_cycle;Signal;HPM_P1;HPM_P2
2021/10/01 00:01:21;;;;;;;;;;;25.10;34.40;;;;;;476870;250;1197;-72
2021/10/01 00:03:22;;;;;;;;;;;25.20;34.30;;;;;;476933;250;984;-72
2021/10/01 00:05:24;;;;;;;;;;;25.20;34.30;;;;;;476908;250;1147;-72
2021/10/01 00:07:25;;;;;;;;;;;25.20;34.30;;;;;;476806;250;1405;-73
2021/10/01 00:09:26;;;;;;;;;;;25.20;34.20;;;;;;476927;250;1057;-72
2021/10/01 00:11:27;;;;;;;;;;;25.20;34.30;;;;;;476844;250;1241;-72
2021/10/01 00:13:29;;;;;;;;;;;25.20;34.30;;;;;;476896;250;953;-72
2021/10/01 00:15:31;;;;;;;;;;;25.20;34.20;;;;;;476967;250;1190;-73
2021/10/01 00:17:31;;;;;;;;;;;25.30;34.20;;;;;;476863;250;1460;-72
2021/10/01 00:19:34;;;;;;;;;;;25.30;34.00;;;;;;476960;250;2125;-72
2021/10/01 00:21:34;;;;;;;;;;;25.30;34.00;;;;;;476906;250;1271;-72
2021/10/01 00:23:36;;;;;;;;;;;25.20;34.10;;;;;;476911;250;1095;-73
2021/10/01 00:25:37;;;;;;;;;;;25.10;34.10;;;;;;476934;250;1036;-72
2021/10/01 00:27:38;;;;;;;;;;;25.10;34.30;;;;;;476905;250;1071;-72
2021/10/01 00:29:40;;;;;;;;;;;25.20;34.20;;;;;;476926;250;1194;-72
2021/10/01 00:31:41;;;;;;;;;;;25.30;34.00;;;;;;476784;246;1110;-72
2021/10/01 00:33:42;;;;;;;;;;;25.10;34.00;;;;;;476922;250;943;-72
2021/10/01 00:35:44;;;;;;;;;;;25.20;34.00;;;;;;476992;250;1287;-72
2021/10/01 00:37:45;;;;;;;;;;;25.10;34.10;;;;;;476914;249;1075;-72
2021/10/01 00:39:46;;;;;;;;;;;25.10;34.00;;;;;;476935;250;2184;-72
2021/10/01 00:41:48;;;;;;;;;;;25.10;33.90;;;;;;476838;250;1267;-72
2021/10/01 00:43:49;;;;;;;;;;;25.10;33.90;;;;;;476895;250;953;-72
2021/10/01 00:45:50;;;;;;;;;;;25.10;34.00;;;;;;476904;250;1205;-72
2021/10/01 00:47:52;;;;;;;;;;;25.20;33.90;;;;;;476931;250;1067;-72
2021/10/01 00:49:53;;;;;;;;;;;25.10;33.80;;;;;;476923;250;1078;-72
2021/10/01 00:51:54;;;;;;;;;;;25.10;33.90;;;;;;476877;250;1217;-72
2021/10/01 00:53:56;;;;;;;;;;;25.10;34.00;;;;;;476933;250;1000;-73
2021/10/01 00:55:57;;;;;;;;;;;25.20;33.80;;;;;;476885;250;1213;-72
2021/10/01 00:57:58;;;;;;;;;;;24.90;34.00;;;;;;476871;250;1065;-72
2021/10/01 01:00:00;;;;;;;;;;;25.10;34.00;;;;;;476885;250;2184;-72
2021/10/01 01:02:01;;;;;;;;;;;25.20;33.90;;;;;;476889;246;1105;-72
2021/10/01 01:04:04;;;;;;;;;;;25.20;33.80;;;;;;476927;250;1051;-72
2021/10/01 01:06:04;;;;;;;;;;;25.20;33.80;;;;;;476802;250;1505;-72
2021/10/01 01:08:05;;;;;;;;;;;25.10;33.80;;;;;;476888;250;1099;-72
2021/10/01 01:10:06;;;;;;;;;;;25.10;33.80;;;;;;477028;250;948;-73
2021/10/01 01:12:08;;;;;;;;;;;24.90;33.90;;;;;;476859;250;1187;-72
2021/10/01 01:14:09;;;;;;;;;;;25.00;34.10;;;;;;476952;250;966;-72
2021/10/01 01:16:10;;;;;;;;;;;25.10;33.90;;;;;;476883;250;1183;-72
2021/10/01 01:18:12;;;;;;;;;;;25.00;34.00;;;;;;476901;250;1012;-72
2021/10/01 01:20:13;;;;;;;;;;;25.00;34.00;;;;;;476900;250;2129;-73
2021/10/01 01:22:14;;;;;;;;;;;24.90;34.00;;;;;;476849;250;1132;-72
2021/10/01 01:24:16;;;;;;;;;;;24.90;34.10;;;;;;476766;250;1294;-73
2021/10/01 01:26:17;;;;;;;;;;;24.90;34.10;;;;;;476908;250;1220;-72
2021/10/01 01:28:19;;;;;;;;;;;24.90;34.20;;;;;;476970;250;1226;-72
2021/10/01 01:30:20;;;;;;;;;;;24.90;34.10;;;;;;476977;250;1266;-72
2021/10/01 01:32:21;;;;;;;;;;;24.90;34.10;;;;;;476896;250;1084;-72
2021/10/01 01:34:23;;;;;;;;;;;24.80;34.10;;;;;;476944;250;1001;-72
2021/10/01 01:36:24;;;;;;;;;;;24.80;34.10;;;;;;476845;250;1249;-73
2021/10/01 01:38:25;;;;;;;;;;;24.80;34.10;;;;;;476894;250;1119;-72
2021/10/01 01:40:27;;;;;;;;;;;24.80;34.30;;;;;;476861;250;2129;-72
2021/10/01 01:42:28;;;;;;;;;;;24.80;34.20;;;;;;476895;250;1151;-72
2021/10/01 01:44:29;;;;;;;;;;;24.80;34.10;;;;;;476943;250;947;-72
2021/10/01 01:46:31;;;;;;;;;;;24.80;34.10;;;;;;476898;250;1239;-73
2021/10/01 01:48:32;;;;;;;;;;;24.80;34.10;;;;;;476945;250;1215;-72
2021/10/01 01:50:33;;;;;;;;;;;24.80;34.10;;;;;;476991;250;951;-72
2021/10/01 01:52:35;;;;;;;;;;;24.70;34.30;;;;;;476942;250;1065;-73
2021/10/01 01:54:36;;;;;;;;;;;24.70;34.30;;;;;;476969;250;941;-72
2021/10/01 01:56:37;;;;;;;;;;;24.80;34.00;;;;;;476907;250;1342;-73
2021/10/01 01:58:39;;;;;;;;;;;24.60;34.40;;;;;;476993;250;1224;-73
2021/10/01 02:00:40;;;;;;;;;;;24.80;34.20;;;;;;476962;250;2188;-73
2021/10/01 02:02:41;;;;;;;;;;;24.70;34.10;;;;;;476965;250;1067;-73
2021/10/01 02:04:43;;;;;;;;;;;24.70;34.30;;;;;;476960;250;1059;-72
2021/10/01 02:06:44;;;;;;;;;;;24.80;34.10;;;;;;476928;250;1296;-72
2021/10/01 02:08:45;;;;;;;;;;;24.70;34.10;;;;;;476930;250;962;-72
2021/10/01 02:10:47;;;;;;;;;;;24.70;34.10;;;;;;476959;250;1082;-72
2021/10/01 02:12:48;;;;;;;;;;;24.80;34.00;;;;;;476840;250;1233;-72
2021/10/01 02:14:50;;;;;;;;;;;24.70;34.10;;;;;;476965;250;994;-72
2021/10/01 02:16:51;;;;;;;;;;;24.80;34.00;;;;;;476806;250;1117;-72
2021/10/01 02:18:52;;;;;;;;;;;24.80;34.10;;;;;;476916;250;997;-72
2021/10/01 02:20:54;;;;;;;;;;;24.70;34.10;;;;;;476834;250;2112;-72
2021/10/01 02:22:55;;;;;;;;;;;24.70;34.10;;;;;;476897;250;1111;-72
2021/10/01 02:24:56;;;;;;;;;;;24.70;34.00;;;;;;476892;250;1019;-72
2021/10/01 02:26:58;;;;;;;;;;;24.60;34.30;;;;;;476797;250;1186;-72
2021/10/01 02:28:59;;;;;;;;;;;24.60;34.20;;;;;;476872;250;1013;-72
2021/10/01 02:31:00;;;;;;;;;;;24.60;34.10;;;;;;476863;250;1291;-73
2021/10/01 02:33:02;;;;;;;;;;;24.80;34.00;;;;;;476890;250;1099;-72
2021/10/01 02:35:03;;;;;;;;;;;24.70;34.20;;;;;;476965;250;958;-72
2021/10/01 02:37:05;;;;;;;;;;;24.60;34.20;;;;;;476869;250;1103;-72
2021/10/01 02:39:07;;;;;;;;;;;24.60;34.20;;;;;;476966;250;1069;-72
2021/10/01 02:41:08;;;;;;;;;;;24.60;34.10;;;;;;476830;250;2248;-72
2021/10/01 02:43:09;;;;;;;;;;;24.70;34.10;;;;;;476841;250;1147;-72
2021/10/01 02:45:11;;;;;;;;;;;24.70;34.00;;;;;;476865;250;949;-72
2021/10/01 02:47:12;;;;;;;;;;;24.60;34.00;;;;;;476824;250;1161;-72
2021/10/01 02:49:13;;;;;;;;;;;24.70;34.00;;;;;;476850;250;1241;-72
2021/10/01 02:51:15;;;;;;;;;;;24.50;34.10;;;;;;476776;250;1239;-72
2021/10/01 02:53:16;;;;;;;;;;;24.50;34.20;;;;;;476899;250;1051;-72
2021/10/01 02:55:17;;;;;;;;;;;24.50;34.30;;;;;;476879;250;1153;-72
2021/10/01 02:57:19;;;;;;;;;;;24.40;34.30;;;;;;476873;250;1127;-72
2021/10/01 02:59:20;;;;;;;;;;;24.30;34.30;;;;;;476952;250;2190;-72
2021/10/01 03:01:21;;;;;;;;;;;24.40;34.40;;;;;;476885;250;1178;-73
2021/10/01 03:03:23;;;;;;;;;;;24.40;34.40;;;;;;476880;250;1141;-72
2021/10/01 03:05:24;;;;;;;;;;;24.50;34.40;;;;;;476938;250;1133;-72
2021/10/01 03:07:26;;;;;;;;;;;24.40;34.40;;;;;;476855;250;965;-72
2021/10/01 03:09:28;;;;;;;;;;;24.10;34.60;;;;;;476876;250;982;-72
2021/10/01 03:11:28;;;;;;;;;;;24.20;34.80;;;;;;476822;250;1428;-73
2021/10/01 03:13:29;;;;;;;;;;;24.10;34.60;;;;;;476902;250;936;-72
2021/10/01 03:15:31;;;;;;;;;;;24.00;34.90;;;;;;477021;250;972;-72
2021/10/01 03:17:32;;;;;;;;;;;24.30;34.60;;;;;;476942;250;1318;-72
2021/10/01 03:19:34;;;;;;;;;;;24.20;34.50;;;;;;476905;250;2196;-72
2021/10/01 03:21:35;;;;;;;;;;;24.20;34.60;;;;;;476856;250;1322;-72
2021/10/01 03:23:36;;;;;;;;;;;24.20;34.50;;;;;;476959;250;933;-72
2021/10/01 03:25:37;;;;;;;;;;;24.10;34.60;;;;;;476920;250;1257;-72
2021/10/01 03:27:39;;;;;;;;;;;24.00;34.70;;;;;;476912;250;1152;-72
2021/10/01 03:29:40;;;;;;;;;;;23.80;34.80;;;;;;476967;250;1027;-72
2021/10/01 03:31:41;;;;;;;;;;;24.00;35.00;;;;;;476842;250;1179;-72
2021/10/01 03:33:43;;;;;;;;;;;24.00;34.80;;;;;;476904;250;1172;-72
2021/10/01 03:35:44;;;;;;;;;;;23.90;35.00;;;;;;476808;250;1081;-72
2021/10/01 03:37:46;;;;;;;;;;;24.00;34.80;;;;;;476884;250;1125;-72
2021/10/01 03:39:47;;;;;;;;;;;24.00;34.80;;;;;;476986;250;2192;-74
2021/10/01 03:41:48;;;;;;;;;;;23.80;35.00;;;;;;476881;250;1134;-72
2021/10/01 03:43:50;;;;;;;;;;;23.90;34.90;;;;;;476908;250;1089;-72
2021/10/01 03:45:51;;;;;;;;;;;23.80;35.00;;;;;;476941;250;1168;-72
2021/10/01 03:47:52;;;;;;;;;;;23.80;35.00;;;;;;476929;250;1157;-72
2021/10/01 03:49:54;;;;;;;;;;;23.70;35.10;;;;;;476954;250;952;-72
2021/10/01 03:51:57;;;;;;;;;;;23.60;35.10;;;;;;476902;250;1208;-72
2021/10/01 03:53:57;;;;;;;;;;;23.60;35.30;;;;;;476915;249;1401;-72
2021/10/01 03:55:58;;;;;;;;;;;23.70;35.20;;;;;;476816;250;1414;-72
2021/10/01 03:57:59;;;;;;;;;;;23.80;34.90;;;;;;476954;250;1156;-72
2021/10/01 04:00:00;;;;;;;;;;;23.90;34.80;;;;;;476967;250;2125;-73
2021/10/01 04:02:02;;;;;;;;;;;23.60;35.00;;;;;;476905;250;1158;-72
2021/10/01 04:04:03;;;;;;;;;;;23.60;35.00;;;;;;476892;250;1133;-73
2021/10/01 04:06:04;;;;;;;;;;;23.70;34.90;;;;;;476854;250;1156;-73
2021/10/01 04:08:06;;;;;;;;;;;23.80;34.90;;;;;;476875;250;1169;-73
2021/10/01 04:10:07;;;;;;;;;;;23.50;35.40;;;;;;477007;250;1215;-72
2021/10/01 04:12:09;;;;;;;;;;;23.60;35.20;;;;;;476803;250;1234;-72
2021/10/01 04:14:10;;;;;;;;;;;23.70;34.90;;;;;;476788;250;1047;-72
2021/10/01 04:16:11;;;;;;;;;;;23.60;34.90;;;;;;476839;250;1406;-72
2021/10/01 04:18:13;;;;;;;;;;;23.60;34.90;;;;;;476842;250;1172;-72
2021/10/01 04:20:14;;;;;;;;;;;23.50;35.00;;;;;;476854;250;2143;-72
2021/10/01 04:22:15;;;;;;;;;;;23.20;35.50;;;;;;476838;250;1060;-72
2021/10/01 04:24:17;;;;;;;;;;;23.20;35.50;;;;;;476878;250;950;-72
2021/10/01 04:26:18;;;;;;;;;;;23.60;35.20;;;;;;476798;250;1128;-72
2021/10/01 04:28:19;;;;;;;;;;;23.30;35.40;;;;;;476850;250;943;-72
2021/10/01 04:30:20;;;;;;;;;;;23.40;35.30;;;;;;476872;250;1015;-72
2021/10/01 04:32:22;;;;;;;;;;;23.70;35.00;;;;;;476816;250;1203;-72
2021/10/01 04:34:23;;;;;;;;;;;23.60;35.00;;;;;;476829;250;1178;-72
2021/10/01 04:36:26;;;;;;;;;;;23.70;34.70;;;;;;476803;250;1206;-72
2021/10/01 04:38:27;;;;;;;;;;;23.80;34.70;;;;;;476785;250;1384;-72
2021/10/01 04:40:28;;;;;;;;;;;23.80;34.70;;;;;;476761;250;2196;-72
2021/10/01 04:42:29;;;;;;;;;;;23.70;34.70;;;;;;476750;250;1152;-73
2021/10/01 04:44:31;;;;;;;;;;;23.60;34.90;;;;;;476734;250;1033;-72
2021/10/01 04:46:32;;;;;;;;;;;23.80;34.60;;;;;;476728;250;1113;-72
2021/10/01 04:48:33;;;;;;;;;;;23.70;34.70;;;;;;476784;250;1233;-72
2021/10/01 04:50:35;;;;;;;;;;;23.80;34.60;;;;;;476824;250;1042;-72
2021/10/01 04:52:36;;;;;;;;;;;23.70;34.60;;;;;;476750;250;1108;-72
2021/10/01 04:54:37;;;;;;;;;;;23.40;35.00;;;;;;476808;250;969;-72
2021/10/01 04:56:38;;;;;;;;;;;23.60;34.90;;;;;;476737;250;1210;-72
2021/10/01 04:58:40;;;;;;;;;;;23.40;35.10;;;;;;476782;250;1100;-72
2021/10/01 05:00:41;;;;;;;;;;;23.60;34.90;;;;;;476799;250;2121;-72
2021/10/01 05:02:42;;;;;;;;;;;23.70;34.70;;;;;;476760;250;1226;-71
2021/10/01 05:04:44;;;;;;;;;;;23.70;34.80;;;;;;476787;250;1197;-72
2021/10/01 05:06:45;;;;;;;;;;;23.40;35.20;;;;;;476756;250;1267;-72
2021/10/01 05:08:46;;;;;;;;;;;23.50;35.10;;;;;;476819;250;1025;-72
2021/10/01 05:10:48;;;;;;;;;;;23.50;34.90;;;;;;476756;250;1110;-72
2021/10/01 05:12:49;;;;;;;;;;;23.70;34.80;;;;;;476699;250;1190;-72
2021/10/01 05:14:50;;;;;;;;;;;22.90;35.40;;;;;;476622;250;1078;-72
2021/10/01 05:16:52;;;;;;;;;;;22.50;36.30;;;;;;476685;250;1206;-72
2021/10/01 05:18:53;;;;;;;;;;;22.20;37.00;;;;;;476712;250;1175;-73
2021/10/01 05:20:54;;;;;;;;;;;22.10;37.00;;;;;;476682;250;2191;-73
2021/10/01 05:22:56;;;;;;;;;;;21.90;37.40;;;;;;476740;250;1148;-72
2021/10/01 05:24:57;;;;;;;;;;;21.90;37.30;;;;;;476764;250;1134;-72
2021/10/01 05:26:58;;;;;;;;;;;21.80;37.60;;;;;;476693;250;1084;-72
2021/10/01 05:29:00;;;;;;;;;;;21.90;37.60;;;;;;476612;250;1070;-72
2021/10/01 05:31:01;;;;;;;;;;;21.80;37.50;;;;;;476623;250;1125;-72
2021/10/01 05:33:06;;;;;;;;;;;21.90;37.50;;;;;;476635;250;1095;-72
2021/10/01 05:35:07;;;;;;;;;;;22.00;37.40;;;;;;476563;250;1458;-72
2021/10/01 05:37:08;;;;;;;;;;;21.80;37.40;;;;;;476490;250;1161;-72
2021/10/01 05:39:10;;;;;;;;;;;21.70;37.70;;;;;;476456;250;1035;-72
2021/10/01 05:41:11;;;;;;;;;;;21.70;38.00;;;;;;476491;250;2192;-72
2021/10/01 05:43:12;;;;;;;;;;;21.70;37.80;;;;;;476518;250;1130;-72
2021/10/01 05:45:14;;;;;;;;;;;21.80;37.70;;;;;;476509;250;1100;-72
2021/10/01 05:47:15;;;;;;;;;;;21.90;37.60;;;;;;476532;250;1176;-72
2021/10/01 05:49:20;;;;;;;;;;;21.90;37.70;;;;;;476666;250;1208;-72
2021/10/01 05:51:19;;;;;;;;;;;21.90;37.70;;;;;;476396;250;1432;-72
2021/10/01 05:53:36;;;;;;;;;;;21.90;37.70;;;;;;476487;250;1200;-72
2021/10/01 05:55:27;;;;;;;;;;;21.70;37.80;;;;;;475848;250;1365;-72
2021/10/01 05:57:28;;;;;;;;;;;21.80;37.90;;;;;;476533;250;1291;-73
2021/10/01 05:59:29;;;;;;;;;;;21.80;37.70;;;;;;476465;250;1051;-72
2021/10/01 06:01:31;;;;;;;;;;;21.90;37.70;;;;;;476377;250;2188;-72
2021/10/01 06:03:32;;;;;;;;;;;21.70;37.80;;;;;;476424;250;1131;-72
2021/10/01 06:05:33;;;;;;;;;;;21.70;38.00;;;;;;476434;250;1178;-72
2021/10/01 06:07:35;;;;;;;;;;;21.70;38.00;;;;;;476499;250;1145;-72
2021/10/01 06:09:36;;;;;;;;;;;21.70;38.00;;;;;;476440;250;1138;-72
2021/10/01 06:11:38;;;;;;;;;;;21.60;38.30;;;;;;476383;250;1222;-72
2021/10/01 06:13:39;;;;;;;;;;;21.60;38.30;;;;;;476297;250;1059;-72
2021/10/01 06:15:40;;;;;;;;;;;21.60;38.40;;;;;;476248;250;1215;-72
2021/10/01 06:17:42;;;;;;;;;;;21.70;38.40;;;;;;476594;250;1137;-73
2021/10/01 06:19:44;;;;;;;;;;;21.70;38.40;;;;;;476510;249;1403;-72
2021/10/01 06:21:44;;;;;;;;;;;21.60;38.50;;;;;;476449;250;2196;-72
2021/10/01 06:23:46;;;;;;;;;;;21.60;38.60;;;;;;476443;250;1138;-72
2021/10/01 06:25:47;;;;;;;;;;;21.60;38.70;;;;;;476451;250;1207;-72
2021/10/01 06:27:49;;;;;;;;;;;21.70;38.50;;;;;;476515;250;1090;-72
2021/10/01 06:29:53;;;;;;;;;;;21.70;38.40;;;;;;476419;250;1191;-72
2021/10/01 06:31:52;;;;;;;;;;;21.60;38.60;;;;;;476336;250;1481;-72
2021/10/01 06:33:53;;;;;;;;;;;21.60;38.70;;;;;;476347;250;1076;-72
2021/10/01 06:35:54;;;;;;;;;;;21.70;38.70;;;;;;476303;246;1195;-72
2021/10/01 06:37:56;;;;;;;;;;;21.60;38.90;;;;;;476279;250;1058;-73
2021/10/01 06:39:57;;;;;;;;;;;21.60;38.80;;;;;;476159;250;1202;-72
2021/10/01 06:41:58;;;;;;;;;;;21.70;38.90;;;;;;476175;249;2124;-72
2021/10/01 06:44:02;;;;;;;;;;;21.80;38.70;;;;;;476270;250;1080;-72
2021/10/01 06:46:04;;;;;;;;;;;21.70;38.70;;;;;;476213;250;1436;-72
2021/10/01 06:48:14;;;;;;;;;;;21.60;39.00;;;;;;476015;250;1462;-72
2021/10/01 06:50:23;;;;;;;;;;;21.60;39.20;;;;;;475817;250;1322;-72
2021/10/01 06:52:44;;;;;;;;;;;21.70;39.30;;;;;;475293;250;1405;-72
2021/10/01 07:23:46;;;;;;;;;;;21.50;40.40;;;;;;459547;258;1242;-72
2021/10/01 07:35:26;;;;;;;;;;;21.70;40.80;;;;;;475817;249;1058;-72
2021/10/01 08:19:29;;;;;;;;;;;21.80;42.10;;;;;;476166;250;1191;-72
2021/10/01 08:21:30;;;;;;;;;;;21.90;42.00;;;;;;476009;250;2236;-72
2021/10/01 08:23:31;;;;;;;;;;;21.90;42.00;;;;;;475930;250;1067;-72
2021/10/01 08:25:33;;;;;;;;;;;22.00;42.00;;;;;;475923;250;1113;-72
2021/10/01 08:27:35;;;;;;;;;;;22.10;42.00;;;;;;475920;250;1186;-72
2021/10/01 08:29:37;;;;;;;;;;;22.30;41.70;;;;;;475969;250;1126;-72
2021/10/01 08:31:38;;;;;;;;;;;22.20;41.70;;;;;;476015;250;1346;-72
2021/10/01 08:33:39;;;;;;;;;;;22.20;41.70;;;;;;476021;250;1092;-72
2021/10/01 08:35:40;;;;;;;;;;;22.20;41.80;;;;;;476045;246;1300;-72
2021/10/01 08:37:42;;;;;;;;;;;22.30;41.90;;;;;;476133;250;1264;-72
2021/10/01 08:39:43;;;;;;;;;;;22.30;41.80;;;;;;476221;250;1155;-72
2021/10/01 08:41:44;;;;;;;;;;;22.30;41.80;;;;;;476114;250;2256;-72
2021/10/01 08:43:46;;;;;;;;;;;22.40;41.70;;;;;;476174;250;1073;-72
2021/10/01 08:45:47;;;;;;;;;;;22.40;41.70;;;;;;475970;250;1121;-72
2021/10/01 08:47:48;;;;;;;;;;;22.40;41.80;;;;;;476229;250;1165;-72
2021/10/01 08:49:50;;;;;;;;;;;22.50;41.60;;;;;;476131;250;1124;-72
2021/10/01 08:51:51;;;;;;;;;;;22.50;41.90;;;;;;476121;250;1308;-72
2021/10/01 08:53:52;;;;;;;;;;;22.40;41.90;;;;;;475799;250;1113;-72
2021/10/01 08:55:54;;;;;;;;;;;22.40;41.90;;;;;;475828;250;1182;-72
2021/10/01 08:57:55;;;;;;;;;;;22.50;41.90;;;;;;476145;250;1387;-72
2021/10/01 08:59:57;;;;;;;;;;;22.50;41.90;;;;;;476070;250;996;-72
2021/10/01 09:01:58;;;;;;;;;;;22.50;42.00;;;;;;475983;250;2144;-72
2021/10/01 09:03:59;;;;;;;;;;;22.40;42.00;;;;;;475967;250;1012;-72
2021/10/01 09:06:00;;;;;;;;;;;22.50;42.20;;;;;;475891;246;1221;-72
2021/10/01 09:08:02;;;;;;;;;;;22.50;42.20;;;;;;475996;250;1591;-72
2021/10/01 09:10:04;;;;;;;;;;;22.50;42.20;;;;;;476638;250;883;-72
2021/10/01 09:12:04;;;;;;;;;;;22.50;42.20;;;;;;476190;250;1171;-72
2021/10/01 09:14:06;;;;;;;;;;;22.60;42.10;;;;;;475979;250;1100;-72
2021/10/01 09:16:07;;;;;;;;;;;22.60;42.30;;;;;;475726;246;1165;-72
2021/10/01 09:18:08;;;;;;;;;;;22.50;42.40;;;;;;476239;250;1151;-72
2021/10/01 09:20:10;;;;;;;;;;;22.50;42.50;;;;;;476227;250;1063;-72
2021/10/01 09:22:11;;;;;;;;;;;22.60;42.50;;;;;;476270;250;2178;-72
2021/10/01 09:24:13;;;;;;;;;;;22.60;42.50;;;;;;476151;250;1372;-72
2021/10/01 09:26:14;;;;;;;;;;;22.50;42.60;;;;;;475789;250;2367;-72
2021/10/01 09:28:15;;;;;;;;;;;22.60;42.60;;;;;;476121;250;1110;-72
2021/10/01 09:30:16;;;;;;;;;;;22.50;42.70;;;;;;476165;250;978;-72
2021/10/01 09:32:18;;;;;;;;;;;22.60;42.60;;;;;;476159;250;1120;-72
2021/10/01 09:34:19;;;;;;;;;;;22.60;42.80;;;;;;476181;250;1084;-72
2021/10/01 09:36:20;;;;;;;;;;;22.60;42.90;;;;;;475961;250;1100;-72
2021/10/01 09:38:22;;;;;;;;;;;22.70;42.70;;;;;;476100;250;1397;-72
2021/10/01 09:40:23;;;;;;;;;;;22.60;42.90;;;;;;476168;250;1032;-73
2021/10/01 09:42:24;;;;;;;;;;;22.50;43.10;;;;;;476158;250;2204;-72
2021/10/01 09:44:26;;;;;;;;;;;22.50;43.20;;;;;;476181;250;959;-72
2021/10/01 09:46:27;;;;;;;;;;;22.50;43.30;;;;;;476002;246;1261;-72
2021/10/01 09:48:28;;;;;;;;;;;22.50;43.20;;;;;;476125;250;1094;-72
2021/10/01 09:50:31;;;;;;;;;;;22.80;43.00;;;;;;476110;250;1222;-72
2021/10/01 09:52:32;;;;;;;;;;;22.80;43.00;;;;;;476017;250;1493;-73
2021/10/01 09:54:33;;;;;;;;;;;22.70;43.00;;;;;;476047;250;1029;-72
2021/10/01 09:56:34;;;;;;;;;;;22.40;43.50;;;;;;476087;250;1112;-72
2021/10/01 09:58:36;;;;;;;;;;;22.30;43.80;;;;;;476090;250;1099;-73
2021/10/01 10:00:39;;;;;;;;;;;22.30;44.10;;;;;;476102;250;1214;-72
2021/10/01 10:02:40;;;;;;;;;;;22.30;44.10;;;;;;476023;250;2204;-72
2021/10/01 10:04:40;;;;;;;;;;;22.20;44.40;;;;;;476012;250;1034;-72
2021/10/01 10:06:42;;;;;;;;;;;22.10;44.70;;;;;;476122;250;1338;-72
2021/10/01 10:08:45;;;;;;;;;;;22.00;44.70;;;;;;476104;250;1184;-72
2021/10/01 10:10:45;;;;;;;;;;;22.00;45.00;;;;;;476125;250;1453;-72
2021/10/01 10:12:46;;;;;;;;;;;22.20;44.70;;;;;;476278;250;1090;-72
2021/10/01 10:14:48;;;;;;;;;;;22.20;44.70;;;;;;476331;250;977;-72
2021/10/01 10:16:49;;;;;;;;;;;22.20;44.70;;;;;;476226;250;1551;-72
2021/10/01 10:18:51;;;;;;;;;;;22.20;44.80;;;;;;476237;250;1080;-72
2021/10/01 10:20:52;;;;;;;;;;;22.20;44.80;;;;;;476265;250;1102;-72
2021/10/01 10:22:54;;;;;;;;;;;22.20;44.70;;;;;;475909;250;2187;-72
2021/10/01 10:24:55;;;;;;;;;;;22.20;44.70;;;;;;476007;250;997;-73
2021/10/01 10:26:57;;;;;;;;;;;22.20;44.80;;;;;;476034;250;1416;-72
2021/10/01 10:28:59;;;;;;;;;;;22.30;44.70;;;;;;476224;250;1018;-72
2021/10/01 10:31:00;;;;;;;;;;;22.80;44.00;;;;;;476151;250;1103;-72
2021/10/01 10:33:01;;;;;;;;;;;23.10;43.20;;;;;;476140;250;1167;-72
2021/10/01 10:35:03;;;;;;;;;;;23.20;42.80;;;;;;476110;250;1069;-72
2021/10/01 10:37:04;;;;;;;;;;;23.40;42.60;;;;;;476056;246;1267;-73
2021/10/01 10:39:05;;;;;;;;;;;23.20;42.70;;;;;;475925;250;1112;-72
2021/10/01 10:41:07;;;;;;;;;;;23.20;42.90;;;;;;475830;250;1080;-73
2021/10/01 10:43:08;;;;;;;;;;;23.40;42.30;;;;;;476182;250;2199;-73
2021/10/01 10:45:09;;;;;;;;;;;23.10;42.90;;;;;;476196;250;1244;-73
2021/10/01 10:47:11;;;;;;;;;;;23.40;42.60;;;;;;476158;250;1187;-73
2021/10/01 10:49:12;;;;;;;;;;;23.10;42.90;;;;;;476119;250;983;-73
2021/10/01 10:51:13;;;;;;;;;;;23.30;43.10;;;;;;476079;250;1145;-73
2021/10/01 10:53:16;;;;;;;;;;;23.00;43.20;;;;;;475941;250;1146;-73
2021/10/01 10:55:16;;;;;;;;;;;22.90;43.60;;;;;;476013;250;1418;-73
2021/10/01 10:57:17;;;;;;;;;;;23.00;43.30;;;;;;474918;250;79088;-73
2021/10/01 10:59:19;;;;;;;;;;;23.10;43.20;;;;;;454485;261;1509;-73
2021/10/01 11:01:21;;;;;;;;;;;23.10;43.40;;;;;;454774;261;1484;-73
2021/10/01 11:03:22;;;;;;;;;;;23.10;43.30;;;;;;455818;256;2214;-73
2021/10/01 11:05:24;;;;;;;;;;;23.10;43.50;;;;;;455847;261;1056;-73
2021/10/01 11:07:25;;;;;;;;;;;22.90;43.70;;;;;;455837;256;1385;-73
2021/10/01 11:09:26;;;;;;;;;;;23.30;43.40;;;;;;455802;261;1203;-73
2021/10/01 11:11:27;;;;;;;;;;;23.30;43.20;;;;;;455730;261;1141;-73
2021/10/01 11:13:29;;;;;;;;;;;23.30;43.20;;;;;;455751;261;1036;-73
2021/10/01 11:15:30;;;;;;;;;;;23.00;43.50;;;;;;455833;261;1210;-73
2021/10/01 11:17:31;;;;;;;;;;;23.10;43.60;;;;;;455656;261;1144;-73
2021/10/01 11:19:32;;;;;;;;;;;23.00;43.80;;;;;;455603;258;1199;-73
2021/10/01 11:21:34;;;;;;;;;;;23.20;43.70;;;;;;455650;261;1173;-73
2021/10/01 11:23:35;;;;;;;;;;;23.00;43.90;;;;;;455762;261;2144;-73
2021/10/01 11:25:37;;;;;;;;;;;23.10;43.90;;;;;;455796;258;1138;-73
2021/10/01 11:27:38;;;;;;;;;;;23.10;43.80;;;;;;455859;261;1119;-73
2021/10/01 11:29:39;;;;;;;;;;;23.00;43.80;;;;;;455880;261;1340;-73
2021/10/01 11:31:41;;;;;;;;;;;23.40;43.40;;;;;;455825;261;1126;-73
2021/10/01 11:33:42;;;;;;;;;;;23.60;43.10;;;;;;455671;254;1225;-73
2021/10/01 11:35:43;;;;;;;;;;;23.30;43.40;;;;;;455570;261;1553;-73
2021/10/01 11:37:45;;;;;;;;;;;23.40;43.10;;;;;;455751;261;1101;-73
2021/10/01 11:39:46;;;;;;;;;;;23.40;43.30;;;;;;455765;256;1255;-73
2021/10/01 11:41:47;;;;;;;;;;;23.30;43.40;;;;;;455806;261;1303;-73
2021/10/01 11:43:49;;;;;;;;;;;22.70;44.60;;;;;;455699;261;2194;-73
2021/10/01 11:45:50;;;;;;;;;;;22.40;45.10;;;;;;455591;261;1346;-73
2021/10/01 11:47:53;;;;;;;;;;;22.30;45.60;;;;;;455586;261;1083;-73
2021/10/01 11:49:53;;;;;;;;;;;22.30;45.80;;;;;;455491;256;1437;-72
2021/10/01 11:51:54;;;;;;;;;;;22.30;45.70;;;;;;455468;261;1154;-72
2021/10/01 11:53:55;;;;;;;;;;;22.20;45.80;;;;;;455611;261;1197;-72
2021/10/01 11:55:58;;;;;;;;;;;22.40;45.70;;;;;;455536;261;1142;-72
2021/10/01 11:57:58;;;;;;;;;;;22.40;45.70;;;;;;455852;256;1480;-72
2021/10/01 12:00:02;;;;;;;;;;;22.50;45.40;;;;;;455837;261;987;-72
2021/10/01 12:02:02;;;;;;;;;;;22.30;45.90;;;;;;455886;256;1397;-72
2021/10/01 12:04:03;;;;;;;;;;;22.60;45.40;;;;;;455785;261;2203;-72
2021/10/01 12:06:04;;;;;;;;;;;22.60;45.50;;;;;;455810;257;1226;-72
2021/10/01 12:08:06;;;;;;;;;;;22.70;45.10;;;;;;456022;261;1145;-72
2021/10/01 12:10:07;;;;;;;;;;;22.60;45.40;;;;;;455599;261;1102;-72
2021/10/01 12:12:08;;;;;;;;;;;22.60;45.50;;;;;;455739;261;1116;-72
2021/10/01 12:14:10;;;;;;;;;;;22.50;45.50;;;;;;455802;261;1098;-72
2021/10/01 12:16:11;;;;;;;;;;;22.50;45.50;;;;;;455615;257;1118;-72
2021/10/01 12:18:12;;;;;;;;;;;22.70;45.20;;;;;;455848;261;1166;-72
2021/10/01 12:20:14;;;;;;;;;;;22.70;45.20;;;;;;455884;261;1212;-72
2021/10/01 12:22:15;;;;;;;;;;;22.60;45.30;;;;;;455818;261;1283;-72
2021/10/01 12:24:17;;;;;;;;;;;22.70;45.30;;;;;;457769;253;4863;-72
2021/10/01 12:26:18;;;;;;;;;;;22.50;45.50;;;;;;465206;250;1261;-72
2021/10/01 12:28:19;;;;;;;;;;;22.50;45.70;;;;;;465323;254;1416;-72
2021/10/01 12:30:20;;;;;;;;;;;22.80;45.20;;;;;;465718;254;1095;-72
2021/10/01 12:32:22;;;;;;;;;;;23.00;44.70;;;;;;465219;254;1271;-72
2021/10/01 12:34:23;;;;;;;;;;;23.30;44.20;;;;;;465182;254;986;-72
2021/10/01 12:36:24;;;;;;;;;;;23.30;44.10;;;;;;465199;254;1381;-72
2021/10/01 12:38:26;;;;;;;;;;;23.40;44.10;;;;;;465386;254;1107;-72
2021/10/01 12:40:27;;;;;;;;;;;23.60;43.70;;;;;;465176;254;1132;-72
2021/10/01 12:42:28;;;;;;;;;;;23.50;43.70;;;;;;465103;254;2138;-72
2021/10/01 12:44:32;;;;;;;;;;;23.30;44.30;;;;;;465066;254;1129;-72
2021/10/01 12:46:31;;;;;;;;;;;23.50;43.90;;;;;;465208;250;1597;-72
2021/10/01 12:48:32;;;;;;;;;;;23.50;43.60;;;;;;465447;254;1051;-72
2021/10/01 12:50:34;;;;;;;;;;;23.50;43.70;;;;;;465275;254;995;-72
2021/10/01 12:52:35;;;;;;;;;;;23.60;43.70;;;;;;465316;254;1167;-72
2021/10/01 12:54:36;;;;;;;;;;;23.50;43.80;;;;;;465205;254;1095;-72
2021/10/01 12:56:38;;;;;;;;;;;23.30;44.00;;;;;;465273;254;1156;-72
2021/10/01 12:58:39;;;;;;;;;;;23.50;43.70;;;;;;465168;254;1070;-72
2021/10/01 13:00:40;;;;;;;;;;;23.80;43.50;;;;;;465268;254;1066;-72
2021/10/01 13:02:42;;;;;;;;;;;23.80;43.30;;;;;;465301;254;2186;-72
2021/10/01 13:04:44;;;;;;;;;;;23.80;43.20;;;;;;465324;254;1037;-72
2021/10/01 13:06:44;;;;;;;;;;;23.90;43.30;;;;;;465319;250;1376;-72
2021/10/01 13:08:47;;;;;;;;;;;23.80;43.20;;;;;;465150;254;1099;-72
2021/10/01 13:10:49;;;;;;;;;;;23.80;43.20;;;;;;465206;254;1228;-72
2021/10/01 13:12:50;;;;;;;;;;;23.80;43.40;;;;;;465203;250;1364;-73
2021/10/01 13:14:51;;;;;;;;;;;23.70;43.40;;;;;;465205;254;1050;-72
2021/10/01 13:16:52;;;;;;;;;;;23.60;43.50;;;;;;465212;254;1332;-72
2021/10/01 13:18:56;;;;;;;;;;;23.80;43.30;;;;;;465177;254;1041;-72